Aviation Digital Data Service (ADDS)

Output produced by METARs form (1254 UTC 19 January 2019)
found at http://www.aviationweather.gov/metar/data/
 
METAR text: WBKS 191200Z 06010KT 020V100 9999 SCT015 BKN290 27/24 Q1009
Conditions at: WBKS (SANDAKAN/KALIMAN, MY) observed 1200 UTC 19 January 2019
Temperature: 27.0°C (81°F)
Dewpoint: 24.0°C (75°F) [RH = 84%]
Pressure (altimeter): 29.79 inches Hg (1009.0 mb)
Winds: from the ENE (60 degrees) at 12 MPH (10 knots; 5.1 m/s)
Visibility: 6 or more miles (10+ km)
Ceiling: 29000 feet AGL
Clouds: scattered clouds at 1500 feet AGL
broken clouds at 29000 feet AGL
Weather: no significant weather observed at this time

METAR text: WBKS 191100Z 06010KT 030V090 9999 SCT015 BKN290 28/24 Q1009
Conditions at: WBKS (SANDAKAN/KALIMAN, MY) observed 1100 UTC 19 January 2019
Temperature: 28.0°C (82°F)
Dewpoint: 24.0°C (75°F) [RH = 79%]
Pressure (altimeter): 29.79 inches Hg (1009.0 mb)
Winds: from the ENE (60 degrees) at 12 MPH (10 knots; 5.1 m/s)
Visibility: 6 or more miles (10+ km)
Ceiling: 29000 feet AGL
Clouds: scattered clouds at 1500 feet AGL
broken clouds at 29000 feet AGL
Weather: no significant weather observed at this time

METAR text: WBKS 191000Z 06009KT 020V100 9999 SCT015 BKN290 28/24 Q1009
Conditions at: WBKS (SANDAKAN/KALIMAN, MY) observed 1000 UTC 19 January 2019
Temperature: 28.0°C (82°F)
Dewpoint: 24.0°C (75°F) [RH = 79%]
Pressure (altimeter): 29.79 inches Hg (1009.0 mb)
Winds: from the ENE (60 degrees) at 10 MPH (9 knots; 4.6 m/s)
Visibility: 6 or more miles (10+ km)
Ceiling: 29000 feet AGL
Clouds: scattered clouds at 1500 feet AGL
broken clouds at 29000 feet AGL
Weather: no significant weather observed at this time

METAR text: WBKS 190900Z 06011KT 030V100 9999 SCT015 BKN290 28/24 Q1008
Conditions at: WBKS (SANDAKAN/KALIMAN, MY) observed 0900 UTC 19 January 2019
Temperature: 28.0°C (82°F)
Dewpoint: 24.0°C (75°F) [RH = 79%]
Pressure (altimeter): 29.76 inches Hg (1008.0 mb)
Winds: from the ENE (60 degrees) at 13 MPH (11 knots; 5.7 m/s)
Visibility: 6 or more miles (10+ km)
Ceiling: 29000 feet AGL
Clouds: scattered clouds at 1500 feet AGL
broken clouds at 29000 feet AGL
Weather: no significant weather observed at this time

METAR text: WBKS 190800Z 04010KT 020V080 9999 SCT015 BKN290 29/25 Q1008
Conditions at: WBKS (SANDAKAN/KALIMAN, MY) observed 0800 UTC 19 January 2019
Temperature: 29.0°C (84°F)
Dewpoint: 25.0°C (77°F) [RH = 79%]
Pressure (altimeter): 29.76 inches Hg (1008.0 mb)
Winds: from the NE (40 degrees) at 12 MPH (10 knots; 5.1 m/s)
Visibility: 6 or more miles (10+ km)
Ceiling: 29000 feet AGL
Clouds: scattered clouds at 1500 feet AGL
broken clouds at 29000 feet AGL
Weather: no significant weather observed at this time

METAR text: WBKS 190700Z 05011KT 020V080 9999 SCT015 BKN290 29/24 Q1008
Conditions at: WBKS (SANDAKAN/KALIMAN, MY) observed 0700 UTC 19 January 2019
Temperature: 29.0°C (84°F)
Dewpoint: 24.0°C (75°F) [RH = 74%]
Pressure (altimeter): 29.76 inches Hg (1008.0 mb)
Winds: from the NE (50 degrees) at 13 MPH (11 knots; 5.7 m/s)
Visibility: 6 or more miles (10+ km)
Ceiling: 29000 feet AGL
Clouds: scattered clouds at 1500 feet AGL
broken clouds at 29000 feet AGL
Weather: no significant weather observed at this time

METAR text: WBKS 190600Z 04011KT 010V070 9999 SCT016 BKN280 29/24 Q1009
Conditions at: WBKS (SANDAKAN/KALIMAN, MY) observed 0600 UTC 19 January 2019
Temperature: 29.0°C (84°F)
Dewpoint: 24.0°C (75°F) [RH = 74%]
Pressure (altimeter): 29.79 inches Hg (1009.0 mb)
Winds: from the NE (40 degrees) at 13 MPH (11 knots; 5.7 m/s)
Visibility: 6 or more miles (10+ km)
Ceiling: 28000 feet AGL
Clouds: scattered clouds at 1600 feet AGL
broken clouds at 28000 feet AGL
Weather: no significant weather observed at this time

METAR text: WBKS 190500Z 04011KT 010V070 9999 SCT016 BKN290 30/25 Q1010
Conditions at: WBKS (SANDAKAN/KALIMAN, MY) observed 0500 UTC 19 January 2019
Temperature: 30.0°C (86°F)
Dewpoint: 25.0°C (77°F) [RH = 75%]
Pressure (altimeter): 29.82 inches Hg (1010.0 mb)
Winds: from the NE (40 degrees) at 13 MPH (11 knots; 5.7 m/s)
Visibility: 6 or more miles (10+ km)
Ceiling: 29000 feet AGL
Clouds: scattered clouds at 1600 feet AGL
broken clouds at 29000 feet AGL
Weather: no significant weather observed at this time

METAR text: WBKS 190400Z 04010KT 010V100 9999 SCT016 BKN290 29/25 Q1010
Conditions at: WBKS (SANDAKAN/KALIMAN, MY) observed 0400 UTC 19 January 2019
Temperature: 29.0°C (84°F)
Dewpoint: 25.0°C (77°F) [RH = 79%]
Pressure (altimeter): 29.82 inches Hg (1010.0 mb)
Winds: from the NE (40 degrees) at 12 MPH (10 knots; 5.1 m/s)
Visibility: 6 or more miles (10+ km)
Ceiling: 29000 feet AGL
Clouds: scattered clouds at 1600 feet AGL
broken clouds at 29000 feet AGL
Weather: no significant weather observed at this time

METAR text: WBKS 190300Z 04010KT 360V060 9999 FEW015 BKN290 29/25 Q1011
Conditions at: WBKS (SANDAKAN/KALIMAN, MY) observed 0300 UTC 19 January 2019
Temperature: 29.0°C (84°F)
Dewpoint: 25.0°C (77°F) [RH = 79%]
Pressure (altimeter): 29.85 inches Hg (1011.0 mb)
Winds: from the NE (40 degrees) at 12 MPH (10 knots; 5.1 m/s)
Visibility: 6 or more miles (10+ km)
Ceiling: 29000 feet AGL
Clouds: few clouds at 1500 feet AGL
broken clouds at 29000 feet AGL
Weather: no significant weather observed at this time

METAR text: WBKS 190200Z 04011KT 9999 SCT015 BKN290 29/25 Q1011
Conditions at: WBKS (SANDAKAN/KALIMAN, MY) observed 0200 UTC 19 January 2019
Temperature: 29.0°C (84°F)
Dewpoint: 25.0°C (77°F) [RH = 79%]
Pressure (altimeter): 29.85 inches Hg (1011.0 mb)
Winds: from the NE (40 degrees) at 13 MPH (11 knots; 5.7 m/s)
Visibility: 6 or more miles (10+ km)
Ceiling: 29000 feet AGL
Clouds: scattered clouds at 1500 feet AGL
broken clouds at 29000 feet AGL
Weather: no significant weather observed at this time

METAR text: WBKS 190100Z 02009KT 350V050 9999 SCT014 BKN290 28/24 Q1011
Conditions at: WBKS (SANDAKAN/KALIMAN, MY) observed 0100 UTC 19 January 2019
Temperature: 28.0°C (82°F)
Dewpoint: 24.0°C (75°F) [RH = 79%]
Pressure (altimeter): 29.85 inches Hg (1011.0 mb)
Winds: from the NNE (20 degrees) at 10 MPH (9 knots; 4.6 m/s)
Visibility: 6 or more miles (10+ km)
Ceiling: 29000 feet AGL
Clouds: scattered clouds at 1400 feet AGL
broken clouds at 29000 feet AGL
Weather: no significant weather observed at this time

METAR text: WBKS 190000Z 03010KT 360V060 9999 FEW010 SCT014 BKN290 27/24 Q1011 RERA
Conditions at: WBKS (SANDAKAN/KALIMAN, MY) observed 0000 UTC 19 January 2019
Temperature: 27.0°C (81°F)
Dewpoint: 24.0°C (75°F) [RH = 84%]
Pressure (altimeter): 29.85 inches Hg (1011.0 mb)
Winds: from the NNE (30 degrees) at 12 MPH (10 knots; 5.1 m/s)
Visibility: 6 or more miles (10+ km)
Ceiling: 29000 feet AGL
Clouds: few clouds at 1000 feet AGL
scattered clouds at 1400 feet AGL
broken clouds at 29000 feet AGL
Weather: no significant weather observed at this time

METAR text: WBKS 182300Z 02007KT 340V050 9999 -RA FEW009 SCT014 BKN280 27/24 Q1010
Conditions at: WBKS (SANDAKAN/KALIMAN, MY) observed 2300 UTC 18 January 2019
Temperature: 27.0°C (81°F)
Dewpoint: 24.0°C (75°F) [RH = 84%]
Pressure (altimeter): 29.82 inches Hg (1010.0 mb)
Winds: from the NNE (20 degrees) at 8 MPH (7 knots; 3.6 m/s)
Visibility: 6 or more miles (10+ km)
Ceiling: 28000 feet AGL
Clouds: few clouds at 900 feet AGL
scattered clouds at 1400 feet AGL
broken clouds at 28000 feet AGL
Weather: -RA  (light rain)

METAR text: WBKS 182200Z 00000KT 9999 SCT015 BKN280 25/24 Q1010
Conditions at: WBKS (SANDAKAN/KALIMAN, MY) observed 2200 UTC 18 January 2019
Temperature: 25.0°C (77°F)
Dewpoint: 24.0°C (75°F) [RH = 94%]
Pressure (altimeter): 29.82 inches Hg (1010.0 mb)
Winds: calm
Visibility: 6 or more miles (10+ km)
Ceiling: 28000 feet AGL
Clouds: scattered clouds at 1500 feet AGL
broken clouds at 28000 feet AGL
Weather: no significant weather observed at this time

METAR text: WBKS 182100Z 03005KT 9999 SCT015 BKN280 26/23 Q1009
Conditions at: WBKS (SANDAKAN/KALIMAN, MY) observed 2100 UTC 18 January 2019
Temperature: 26.0°C (79°F)
Dewpoint: 23.0°C (73°F) [RH = 84%]
Pressure (altimeter): 29.79 inches Hg (1009.0 mb)
Winds: from the NNE (30 degrees) at 6 MPH (5 knots; 2.6 m/s)
Visibility: 6 or more miles (10+ km)
Ceiling: 28000 feet AGL
Clouds: scattered clouds at 1500 feet AGL
broken clouds at 28000 feet AGL
Weather: no significant weather observed at this time

METAR text: WBKS 182000Z 03007KT 350V070 4000 -RA SCT009 SCT040 BKN280 26/23 Q1009
Conditions at: WBKS (SANDAKAN/KALIMAN, MY) observed 2000 UTC 18 January 2019
Temperature: 26.0°C (79°F)
Dewpoint: 23.0°C (73°F) [RH = 84%]
Pressure (altimeter): 29.79 inches Hg (1009.0 mb)
Winds: from the NNE (30 degrees) at 8 MPH (7 knots; 3.6 m/s)
Visibility: 2.49 miles (4.01 km)
Ceiling: 28000 feet AGL
Clouds: scattered clouds at 900 feet AGL
scattered clouds at 4000 feet AGL
broken clouds at 28000 feet AGL
Weather: -RA  (light rain)

METAR text: WBKS 181900Z 03008KT 350V060 9999 FEW015 BKN280 27/23 Q1010
Conditions at: WBKS (SANDAKAN/KALIMAN, MY) observed 1900 UTC 18 January 2019
Temperature: 27.0°C (81°F)
Dewpoint: 23.0°C (73°F) [RH = 79%]
Pressure (altimeter): 29.82 inches Hg (1010.0 mb)
Winds: from the NNE (30 degrees) at 9 MPH (8 knots; 4.1 m/s)
Visibility: 6 or more miles (10+ km)
Ceiling: 28000 feet AGL
Clouds: few clouds at 1500 feet AGL
broken clouds at 28000 feet AGL
Weather: no significant weather observed at this time

METAR text: WBKS 181800Z 04008KT 360V070 9999 SCT015 BKN280 27/23 Q1010
Conditions at: WBKS (SANDAKAN/KALIMAN, MY) observed 1800 UTC 18 January 2019
Temperature: 27.0°C (81°F)
Dewpoint: 23.0°C (73°F) [RH = 79%]
Pressure (altimeter): 29.82 inches Hg (1010.0 mb)
Winds: from the NE (40 degrees) at 9 MPH (8 knots; 4.1 m/s)
Visibility: 6 or more miles (10+ km)
Ceiling: 28000 feet AGL
Clouds: scattered clouds at 1500 feet AGL
broken clouds at 28000 feet AGL
Weather: no significant weather observed at this time

METAR text: WBKS 181700Z 04008KT 010V070 9999 SCT015 BKN280 27/23 Q1011
Conditions at: WBKS (SANDAKAN/KALIMAN, MY) observed 1700 UTC 18 January 2019
Temperature: 27.0°C (81°F)
Dewpoint: 23.0°C (73°F) [RH = 79%]
Pressure (altimeter): 29.85 inches Hg (1011.0 mb)
Winds: from the NE (40 degrees) at 9 MPH (8 knots; 4.1 m/s)
Visibility: 6 or more miles (10+ km)
Ceiling: 28000 feet AGL
Clouds: scattered clouds at 1500 feet AGL
broken clouds at 28000 feet AGL
Weather: no significant weather observed at this time

METAR text: WBKS 181600Z 05007KT 020V080 9999 FEW016 BKN290 27/23 Q1011
Conditions at: WBKS (SANDAKAN/KALIMAN, MY) observed 1600 UTC 18 January 2019
Temperature: 27.0°C (81°F)
Dewpoint: 23.0°C (73°F) [RH = 79%]
Pressure (altimeter): 29.85 inches Hg (1011.0 mb)
Winds: from the NE (50 degrees) at 8 MPH (7 knots; 3.6 m/s)
Visibility: 6 or more miles (10+ km)
Ceiling: 29000 feet AGL
Clouds: few clouds at 1600 feet AGL
broken clouds at 29000 feet AGL
Weather: no significant weather observed at this time

METAR text: WBKS 181500Z 04008KT 360V070 9999 FEW016 BKN290 27/24 Q1011
Conditions at: WBKS (SANDAKAN/KALIMAN, MY) observed 1500 UTC 18 January 2019
Temperature: 27.0°C (81°F)
Dewpoint: 24.0°C (75°F) [RH = 84%]
Pressure (altimeter): 29.85 inches Hg (1011.0 mb)
Winds: from the NE (40 degrees) at 9 MPH (8 knots; 4.1 m/s)
Visibility: 6 or more miles (10+ km)
Ceiling: 29000 feet AGL
Clouds: few clouds at 1600 feet AGL
broken clouds at 29000 feet AGL
Weather: no significant weather observed at this time

METAR text: WBKS 181400Z 05010KT 9999 FEW016 BKN290 27/23 Q1011
Conditions at: WBKS (SANDAKAN/KALIMAN, MY) observed 1400 UTC 18 January 2019
Temperature: 27.0°C (81°F)
Dewpoint: 23.0°C (73°F) [RH = 79%]
Pressure (altimeter): 29.85 inches Hg (1011.0 mb)
Winds: from the NE (50 degrees) at 12 MPH (10 knots; 5.1 m/s)
Visibility: 6 or more miles (10+ km)
Ceiling: 29000 feet AGL
Clouds: few clouds at 1600 feet AGL
broken clouds at 29000 feet AGL
Weather: no significant weather observed at this time

METAR text: WBKS 181300Z 05010KT 020V080 9999 FEW016 BKN290 27/24 Q1011
Conditions at: WBKS (SANDAKAN/KALIMAN, MY) observed 1300 UTC 18 January 2019
Temperature: 27.0°C (81°F)
Dewpoint: 24.0°C (75°F) [RH = 84%]
Pressure (altimeter): 29.85 inches Hg (1011.0 mb)
Winds: from the NE (50 degrees) at 12 MPH (10 knots; 5.1 m/s)
Visibility: 6 or more miles (10+ km)
Ceiling: 29000 feet AGL
Clouds: few clouds at 1600 feet AGL
broken clouds at 29000 feet AGL
Weather: no significant weather observed at this time

METAR text: WBKS 181200Z 04011KT 010V080 9999 FEW016 BKN290 27/24 Q1011
Conditions at: WBKS (SANDAKAN/KALIMAN, MY) observed 1200 UTC 18 January 2019
Temperature: 27.0°C (81°F)
Dewpoint: 24.0°C (75°F) [RH = 84%]
Pressure (altimeter): 29.85 inches Hg (1011.0 mb)
Winds: from the NE (40 degrees) at 13 MPH (11 knots; 5.7 m/s)
Visibility: 6 or more miles (10+ km)
Ceiling: 29000 feet AGL
Clouds: few clouds at 1600 feet AGL
broken clouds at 29000 feet AGL
Weather: no significant weather observed at this time

METAR text: WBKS 181100Z 05011KT 360V080 9999 FEW016 BKN290 27/24 Q1010
Conditions at: WBKS (SANDAKAN/KALIMAN, MY) observed 1100 UTC 18 January 2019
Temperature: 27.0°C (81°F)
Dewpoint: 24.0°C (75°F) [RH = 84%]
Pressure (altimeter): 29.82 inches Hg (1010.0 mb)
Winds: from the NE (50 degrees) at 13 MPH (11 knots; 5.7 m/s)
Visibility: 6 or more miles (10+ km)
Ceiling: 29000 feet AGL
Clouds: few clouds at 1600 feet AGL
broken clouds at 29000 feet AGL
Weather: no significant weather observed at this time

METAR text: WBKS 181000Z 03012KT 360V070 9999 SCT016 BKN290 28/24 Q1009
Conditions at: WBKS (SANDAKAN/KALIMAN, MY) observed 1000 UTC 18 January 2019
Temperature: 28.0°C (82°F)
Dewpoint: 24.0°C (75°F) [RH = 79%]
Pressure (altimeter): 29.79 inches Hg (1009.0 mb)
Winds: from the NNE (30 degrees) at 14 MPH (12 knots; 6.2 m/s)
Visibility: 6 or more miles (10+ km)
Ceiling: 29000 feet AGL
Clouds: scattered clouds at 1600 feet AGL
broken clouds at 29000 feet AGL
Weather: no significant weather observed at this time

METAR text: WBKS 180900Z 05011KT 020V080 9999 SCT016 BKN290 28/24 Q1009
Conditions at: WBKS (SANDAKAN/KALIMAN, MY) observed 0900 UTC 18 January 2019
Temperature: 28.0°C (82°F)
Dewpoint: 24.0°C (75°F) [RH = 79%]
Pressure (altimeter): 29.79 inches Hg (1009.0 mb)
Winds: from the NE (50 degrees) at 13 MPH (11 knots; 5.7 m/s)
Visibility: 6 or more miles (10+ km)
Ceiling: 29000 feet AGL
Clouds: scattered clouds at 1600 feet AGL
broken clouds at 29000 feet AGL
Weather: no significant weather observed at this time

METAR text: WBKS 180800Z 04011KT 360V070 9999 SCT016 BKN290 29/25 Q1008
Conditions at: WBKS (SANDAKAN/KALIMAN, MY) observed 0800 UTC 18 January 2019
Temperature: 29.0°C (84°F)
Dewpoint: 25.0°C (77°F) [RH = 79%]
Pressure (altimeter): 29.76 inches Hg (1008.0 mb)
Winds: from the NE (40 degrees) at 13 MPH (11 knots; 5.7 m/s)
Visibility: 6 or more miles (10+ km)
Ceiling: 29000 feet AGL
Clouds: scattered clouds at 1600 feet AGL
broken clouds at 29000 feet AGL
Weather: no significant weather observed at this time

METAR text: WBKS 180700Z 04013KT 010V070 9999 SCT016 BKN290 29/24 Q1008
Conditions at: WBKS (SANDAKAN/KALIMAN, MY) observed 0700 UTC 18 January 2019
Temperature: 29.0°C (84°F)
Dewpoint: 24.0°C (75°F) [RH = 74%]
Pressure (altimeter): 29.76 inches Hg (1008.0 mb)
Winds: from the NE (40 degrees) at 15 MPH (13 knots; 6.7 m/s)
Visibility: 6 or more miles (10+ km)
Ceiling: 29000 feet AGL
Clouds: scattered clouds at 1600 feet AGL
broken clouds at 29000 feet AGL
Weather: no significant weather observed at this time

METAR text: WBKS 180600Z 04012KT 010V070 9999 SCT015 BKN280 30/25 Q1009
Conditions at: WBKS (SANDAKAN/KALIMAN, MY) observed 0600 UTC 18 January 2019
Temperature: 30.0°C (86°F)
Dewpoint: 25.0°C (77°F) [RH = 75%]
Pressure (altimeter): 29.79 inches Hg (1009.0 mb)
Winds: from the NE (40 degrees) at 14 MPH (12 knots; 6.2 m/s)
Visibility: 6 or more miles (10+ km)
Ceiling: 28000 feet AGL
Clouds: scattered clouds at 1500 feet AGL
broken clouds at 28000 feet AGL
Weather: no significant weather observed at this time

METAR text: WBKS 180500Z 03012KT 010V070 9999 SCT015 BKN280 30/25 Q1010
Conditions at: WBKS (SANDAKAN/KALIMAN, MY) observed 0500 UTC 18 January 2019
Temperature: 30.0°C (86°F)
Dewpoint: 25.0°C (77°F) [RH = 75%]
Pressure (altimeter): 29.82 inches Hg (1010.0 mb)
Winds: from the NNE (30 degrees) at 14 MPH (12 knots; 6.2 m/s)
Visibility: 6 or more miles (10+ km)
Ceiling: 28000 feet AGL
Clouds: scattered clouds at 1500 feet AGL
broken clouds at 28000 feet AGL
Weather: no significant weather observed at this time

METAR text: WBKS 180400Z 04012KT 010V070 9999 FEW010 SCT015 BKN280 30/25 Q1010
Conditions at: WBKS (SANDAKAN/KALIMAN, MY) observed 0400 UTC 18 January 2019
Temperature: 30.0°C (86°F)
Dewpoint: 25.0°C (77°F) [RH = 75%]
Pressure (altimeter): 29.82 inches Hg (1010.0 mb)
Winds: from the NE (40 degrees) at 14 MPH (12 knots; 6.2 m/s)
Visibility: 6 or more miles (10+ km)
Ceiling: 28000 feet AGL
Clouds: few clouds at 1000 feet AGL
scattered clouds at 1500 feet AGL
broken clouds at 28000 feet AGL
Weather: no significant weather observed at this time

METAR text: WBKS 180300Z 04010KT 020V080 9999 SCT015 BKN280 29/25 Q1011
Conditions at: WBKS (SANDAKAN/KALIMAN, MY) observed 0300 UTC 18 January 2019
Temperature: 29.0°C (84°F)
Dewpoint: 25.0°C (77°F) [RH = 79%]
Pressure (altimeter): 29.85 inches Hg (1011.0 mb)
Winds: from the NE (40 degrees) at 12 MPH (10 knots; 5.1 m/s)
Visibility: 6 or more miles (10+ km)
Ceiling: 28000 feet AGL
Clouds: scattered clouds at 1500 feet AGL
broken clouds at 28000 feet AGL
Weather: no significant weather observed at this time

METAR text: WBKS 180200Z 04010KT 360V080 9999 SCT015 BKN290 30/25 Q1011
Conditions at: WBKS (SANDAKAN/KALIMAN, MY) observed 0200 UTC 18 January 2019
Temperature: 30.0°C (86°F)
Dewpoint: 25.0°C (77°F) [RH = 75%]
Pressure (altimeter): 29.85 inches Hg (1011.0 mb)
Winds: from the NE (40 degrees) at 12 MPH (10 knots; 5.1 m/s)
Visibility: 6 or more miles (10+ km)
Ceiling: 29000 feet AGL
Clouds: scattered clouds at 1500 feet AGL
broken clouds at 29000 feet AGL
Weather: no significant weather observed at this time

METAR text: WBKS 180100Z 03009KT 350V060 9999 SCT015 BKN290 29/24 Q1012
Conditions at: WBKS (SANDAKAN/KALIMAN, MY) observed 0100 UTC 18 January 2019
Temperature: 29.0°C (84°F)
Dewpoint: 24.0°C (75°F) [RH = 74%]
Pressure (altimeter): 29.88 inches Hg (1012.0 mb)
Winds: from the NNE (30 degrees) at 10 MPH (9 knots; 4.6 m/s)
Visibility: 6 or more miles (10+ km)
Ceiling: 29000 feet AGL
Clouds: scattered clouds at 1500 feet AGL
broken clouds at 29000 feet AGL
Weather: no significant weather observed at this time

Forecast for: WBKS (SANDAKAN/KALIMAN, MY)
Text: TAF WBKS 191100Z 1912/2012 06010KT 9999 SCT015
Forecast period: 1200 UTC 19 January 2019 to 1200 UTC 20 January 2019
Forecast type: FROM: standard forecast or significant change
Winds: from the ENE (60 degrees) at 12 MPH (10 knots; 5.1 m/s)
Visibility: 6 or more miles 10+ km)
Ceiling: at least 12,000 feet AGL
Clouds: scattered clouds at 1500 feet AGL
Weather: no significant weather forecast for this period